createdAt,value
2023-04-22T00:00:12.854Z,6.18
2023-04-22T00:02:39.866Z,5.57
2023-04-22T00:05:08.005Z,5.75
2023-04-22T00:07:35.108Z,5.85
2023-04-22T00:10:01.923Z,5.78
2023-04-22T00:12:28.688Z,5.72
2023-04-22T00:14:55.383Z,5.95
2023-04-22T00:17:22.162Z,6.00
2023-04-22T00:19:48.895Z,6.40
2023-04-22T00:22:15.665Z,6.05
2023-04-22T00:24:42.573Z,5.93
2023-04-22T00:27:09.565Z,5.85
2023-04-22T00:29:36.715Z,5.80
2023-04-22T00:32:03.855Z,6.10
2023-04-22T00:34:30.715Z,5.60
2023-04-22T00:36:57.768Z,5.78
2023-04-22T00:39:24.526Z,6.07
2023-04-22T00:41:52.112Z,5.50
2023-04-22T00:44:18.962Z,6.18
2023-04-22T00:46:46.138Z,5.55
2023-04-22T00:49:13.440Z,6.13
2023-04-22T00:51:40.635Z,5.88
2023-04-22T00:54:07.461Z,6.20
2023-04-22T00:56:36.271Z,5.80
2023-04-22T00:59:03.312Z,6.15
2023-04-22T01:01:30.819Z,6.18
2023-04-22T01:03:58.687Z,5.95
2023-04-22T01:06:28.111Z,5.80
2023-04-22T01:08:56.053Z,6.10
2023-04-22T01:11:23.432Z,5.72
2023-04-22T01:13:51.487Z,5.90
2023-04-22T01:16:18.764Z,5.93
2023-04-22T01:18:46.240Z,6.10
2023-04-22T01:21:13.046Z,6.30
2023-04-22T01:23:39.876Z,5.78
2023-04-22T01:26:06.757Z,6.03
2023-04-22T01:28:33.698Z,5.88
2023-04-22T01:31:00.929Z,5.78
2023-04-22T01:33:28.036Z,5.85
2023-04-22T01:35:54.817Z,5.47
2023-04-22T01:38:21.638Z,5.57
2023-04-22T01:40:48.453Z,6.35
2023-04-22T01:43:15.314Z,5.88
2023-04-22T01:45:42.727Z,5.85
2023-04-22T01:48:11.114Z,6.05
2023-04-22T01:50:37.976Z,6.28
2023-04-22T01:53:07.731Z,5.97
2023-04-22T01:55:36.233Z,6.28
2023-04-22T01:58:04.353Z,6.25
2023-04-22T02:00:31.609Z,6.05
2023-04-22T02:02:58.483Z,6.28
2023-04-22T02:05:25.750Z,5.90
2023-04-22T02:07:53.532Z,6.40
2023-04-22T02:10:20.701Z,5.95
2023-04-22T02:12:47.497Z,6.28
2023-04-22T02:15:14.485Z,6.07
2023-04-22T02:17:42.501Z,5.75
2023-04-22T02:20:11.951Z,6.30
2023-04-22T02:22:39.992Z,6.45
2023-04-22T02:25:07.427Z,6.68
2023-04-22T02:27:34.201Z,6.00
2023-04-22T02:30:01.242Z,6.22
2023-04-22T02:32:28.244Z,5.97
2023-04-22T02:34:55.030Z,6.50
2023-04-22T02:37:22.887Z,6.22
2023-04-22T02:39:49.929Z,6.28
2023-04-22T02:42:17.416Z,6.20
2023-04-22T02:44:44.283Z,5.70
2023-04-22T02:47:11.109Z,6.53
2023-04-22T02:49:38.053Z,5.85
2023-04-22T02:52:05.577Z,5.75
2023-04-22T02:54:32.338Z,6.10
2023-04-22T02:56:59.277Z,6.53
2023-04-22T02:59:26.075Z,6.28
2023-04-22T03:01:52.914Z,6.18
2023-04-22T03:04:34.362Z,6.18
2023-04-22T03:07:01.231Z,6.63
2023-04-22T03:09:28.002Z,6.60
2023-04-22T03:11:55.717Z,6.82
2023-04-22T03:14:22.632Z,6.43
2023-04-22T03:16:50.229Z,6.82
2023-04-22T03:19:18.040Z,6.15
2023-04-22T03:21:44.786Z,6.38
2023-04-22T03:24:12.012Z,6.80
2023-04-22T03:26:44.470Z,6.38
2023-04-22T03:29:11.231Z,6.32
2023-04-22T03:31:38.149Z,6.03
2023-04-22T03:34:05.226Z,6.03
2023-04-22T03:36:32.266Z,5.72
2023-04-22T03:38:59.174Z,5.80
2023-04-22T03:41:26.641Z,6.45
2023-04-22T03:43:53.590Z,6.47
2023-04-22T03:46:21.225Z,5.72
2023-04-22T03:48:57.160Z,6.00
2023-04-22T03:51:29.021Z,6.13
2023-04-22T03:53:57.188Z,5.43
2023-04-22T03:56:26.472Z,5.47
2023-04-22T03:58:56.937Z,5.90
2023-04-22T04:01:24.576Z,5.40
2023-04-22T04:03:54.547Z,5.72
2023-04-22T04:08:49.651Z,6.32
2023-04-22T04:11:16.711Z,6.65
2023-04-22T04:13:43.707Z,6.03
2023-04-22T04:16:17.503Z,5.78
2023-04-22T04:18:50.860Z,5.90
2023-04-22T04:21:18.449Z,5.43
2023-04-22T04:23:49.327Z,5.85
2023-04-22T04:26:18.083Z,5.70
2023-04-22T04:28:49.225Z,5.43
2023-04-22T04:31:17.848Z,5.68
2023-04-22T04:33:44.992Z,5.55
2023-04-22T04:36:11.745Z,5.25
2023-04-22T04:38:39.063Z,5.30
2023-04-22T04:41:05.982Z,5.43
2023-04-22T04:43:33.907Z,5.95
2023-04-22T04:46:11.385Z,5.90
2023-04-22T04:48:38.581Z,5.43
2023-04-22T04:51:07.893Z,5.88
2023-04-22T04:53:40.447Z,5.50
2023-04-22T04:56:07.224Z,5.80
2023-04-22T04:58:34.797Z,6.30
2023-04-22T05:01:22.054Z,6.05
2023-04-22T05:03:49.395Z,5.72
2023-04-22T05:06:17.972Z,5.68
2023-04-22T05:08:52.828Z,6.45
2023-04-22T05:11:20.415Z,6.40
2023-04-22T05:13:50.456Z,6.55
2023-04-22T05:16:23.739Z,6.65
2023-04-22T05:18:50.591Z,7.10
2023-04-22T05:21:17.549Z,7.18
2023-04-22T05:23:45.401Z,7.07
2023-04-22T05:26:12.979Z,6.85
2023-04-22T05:28:42.105Z,6.53
2023-04-22T05:31:09.124Z,6.55
2023-04-22T05:33:37.054Z,6.55
2023-04-22T05:36:06.181Z,6.32
2023-04-22T05:38:33.020Z,6.63
2023-04-22T05:41:00.646Z,6.18
2023-04-22T05:43:27.716Z,6.40
2023-04-22T05:46:02.118Z,6.25
2023-04-22T05:48:28.914Z,7.30
2023-04-22T05:51:02.493Z,7.25
2023-04-22T05:53:30.641Z,6.60
2023-04-22T05:55:59.852Z,6.85
2023-04-22T05:58:26.678Z,6.68
2023-04-22T06:01:01.293Z,7.18
2023-04-22T06:03:46.249Z,7.38
2023-04-22T06:06:13.464Z,6.72
2023-04-22T06:08:40.279Z,8.23
2023-04-22T06:11:07.051Z,7.53
2023-04-22T06:13:35.887Z,7.85
2023-04-22T06:16:05.042Z,8.30
2023-04-22T06:18:32.666Z,8.73
2023-04-22T06:21:00.053Z,9.00
2023-04-22T06:23:26.910Z,9.20
2023-04-22T06:25:53.651Z,8.57
2023-04-22T06:28:21.568Z,8.82
2023-04-22T06:30:50.905Z,9.25
2023-04-22T06:33:17.912Z,9.20
2023-04-22T06:35:45.142Z,9.65
2023-04-22T06:38:12.210Z,9.52
2023-04-22T06:41:13.868Z,9.43
2023-04-22T06:43:43.950Z,9.18
2023-04-22T06:46:33.264Z,10.15
2023-04-22T06:49:18.559Z,9.82
2023-04-22T06:52:08.607Z,10.70
2023-04-22T06:54:35.401Z,11.30
2023-04-22T06:57:02.160Z,10.95
2023-04-22T06:59:29.482Z,10.57
2023-04-22T07:01:56.413Z,10.65
2023-04-22T07:04:23.487Z,10.73
2023-04-22T07:06:50.428Z,10.63
2023-04-22T07:09:17.297Z,11.02
2023-04-22T07:11:44.808Z,10.70
2023-04-22T07:14:18.365Z,10.98
2023-04-22T07:16:45.521Z,10.80
2023-04-22T07:19:12.505Z,11.70
2023-04-22T07:21:39.233Z,10.98
2023-04-22T07:24:06.148Z,11.15
2023-04-22T07:26:34.366Z,11.15
2023-04-22T07:29:01.214Z,11.80
2023-04-22T07:31:27.970Z,11.10
2023-04-22T07:33:54.772Z,10.68
2023-04-22T07:36:21.504Z,11.00
2023-04-22T07:38:48.252Z,9.88
2023-04-22T07:41:14.993Z,11.65
2023-04-22T07:43:41.731Z,11.50
2023-04-22T07:46:08.497Z,12.13
2023-04-22T07:48:35.638Z,11.25
2023-04-22T07:51:02.874Z,11.07
2023-04-22T07:53:29.611Z,11.93
2023-04-22T07:55:56.324Z,10.07
2023-04-22T07:58:23.185Z,11.93
2023-04-22T08:00:49.899Z,11.95
2023-04-22T08:03:16.833Z,13.25
2023-04-22T08:05:43.796Z,12.50
2023-04-22T08:08:10.782Z,13.02
2023-04-22T08:10:37.568Z,14.02
2023-04-22T08:13:04.405Z,13.57
2023-04-22T08:15:31.183Z,10.82
2023-04-22T08:17:58.198Z,11.32
2023-04-22T08:20:25.776Z,10.10
2023-04-22T08:22:58.057Z,10.60
2023-04-22T08:25:24.859Z,9.45
2023-04-22T08:27:52.782Z,8.00
2023-04-22T08:30:19.679Z,7.82
2023-04-22T08:32:47.481Z,7.78
2023-04-22T08:35:14.363Z,7.35
2023-04-22T08:37:41.761Z,7.32
2023-04-22T08:40:09.166Z,6.80
2023-04-22T08:42:36.755Z,6.50
2023-04-22T08:45:04.568Z,6.60
2023-04-22T08:47:34.968Z,6.43
2023-04-22T08:50:06.300Z,6.78
2023-04-22T08:52:33.317Z,6.60
2023-04-22T08:55:00.228Z,6.40
2023-04-22T08:57:27.481Z,6.85
2023-04-22T08:59:55.612Z,6.70
2023-04-22T09:02:24.363Z,6.72
2023-04-22T09:04:55.952Z,6.75
2023-04-22T09:07:26.836Z,6.78
2023-04-22T09:09:55.692Z,6.38
2023-04-22T09:12:22.935Z,6.43
2023-04-22T09:14:49.867Z,6.32
2023-04-22T09:17:18.814Z,5.88
2023-04-22T09:19:46.062Z,6.47
2023-04-22T09:22:16.066Z,6.85
2023-04-22T09:24:52.283Z,6.32
2023-04-22T09:27:21.019Z,6.15
2023-04-22T09:29:54.712Z,5.07
2023-04-22T09:32:26.178Z,6.50
2023-04-22T09:34:54.327Z,6.05
2023-04-22T09:37:36.081Z,5.78
2023-04-22T09:40:16.275Z,5.35
2023-04-22T09:42:53.936Z,6.07
2023-04-22T09:45:41.708Z,5.85
2023-04-22T09:48:09.650Z,5.18
2023-04-22T09:50:43.094Z,5.65
2023-04-22T09:53:11.975Z,6.00
2023-04-22T09:55:44.885Z,5.50
2023-04-22T09:58:14.218Z,5.43
2023-04-22T10:00:56.881Z,5.40
2023-04-22T10:03:23.881Z,5.45
2023-04-22T10:05:51.132Z,5.70
2023-04-22T10:08:18.751Z,5.70
2023-04-22T10:10:46.339Z,5.38
2023-04-22T10:13:13.470Z,5.63
2023-04-22T10:15:49.592Z,5.53
2023-04-22T10:18:24.293Z,5.65
2023-04-22T10:20:51.687Z,5.95
2023-04-22T10:23:20.745Z,5.47
2023-04-22T10:25:49.314Z,5.95
2023-04-22T10:28:17.455Z,5.93
2023-04-22T10:30:44.388Z,5.78
2023-04-22T10:33:31.348Z,5.10
2023-04-22T10:36:21.430Z,5.53
2023-04-22T10:38:53.990Z,5.70
2023-04-22T10:41:31.482Z,6.22
2023-04-22T10:44:00.320Z,5.70
2023-04-22T10:46:34.668Z,5.90
2023-04-22T10:49:07.429Z,6.57
2023-04-22T10:51:44.442Z,6.43
2023-04-22T10:54:28.086Z,6.10
2023-04-22T10:57:22.466Z,6.88
2023-04-22T10:59:53.043Z,6.35
2023-04-22T11:02:21.319Z,6.90
2023-04-22T11:04:48.743Z,6.53
2023-04-22T11:07:20.433Z,6.63
2023-04-22T11:09:50.657Z,5.88
2023-04-22T11:12:35.767Z,6.78
2023-04-22T11:15:17.340Z,6.40
2023-04-22T11:17:50.345Z,6.40
2023-04-22T11:20:17.480Z,6.53
2023-04-22T11:22:56.114Z,7.00
2023-04-22T11:25:24.538Z,7.00
2023-04-22T11:27:52.410Z,6.82
2023-04-22T11:30:21.415Z,6.43
2023-04-22T11:32:56.925Z,7.20
2023-04-22T11:38:00.451Z,6.20
2023-04-22T11:43:00.506Z,6.82
2023-04-22T11:47:55.300Z,7.53
2023-04-22T11:50:26.677Z,7.60
2023-04-22T11:52:54.728Z,7.10
2023-04-22T11:55:30.182Z,8.00
2023-04-22T11:58:05.145Z,8.32
2023-04-22T12:00:34.443Z,8.60
2023-04-22T12:03:03.898Z,8.30
2023-04-22T12:05:43.700Z,8.43
2023-04-22T12:08:18.969Z,8.48
2023-04-22T12:10:54.676Z,8.77
2023-04-22T12:13:33.171Z,8.02
2023-04-22T12:16:02.478Z,8.00
2023-04-22T12:18:33.110Z,8.05
2023-04-22T12:21:11.051Z,8.38
2023-04-22T12:23:42.229Z,8.48
2023-04-22T12:26:09.264Z,7.97
2023-04-22T12:28:38.175Z,7.93
2023-04-22T12:31:05.793Z,8.02
2023-04-22T12:33:33.222Z,7.63
2023-04-22T12:36:00.478Z,7.30
2023-04-22T12:38:27.328Z,7.18
2023-04-22T12:40:55.175Z,7.63
2023-04-22T12:43:21.973Z,7.65
2023-04-22T12:45:48.789Z,7.38
2023-04-22T12:48:16.314Z,7.90
2023-04-22T12:50:43.332Z,7.53
2023-04-22T12:53:10.428Z,7.90
2023-04-22T12:55:37.146Z,7.07
2023-04-22T12:58:04.299Z,7.95
2023-04-22T13:00:31.114Z,7.82
2023-04-22T13:02:58.041Z,7.28
2023-04-22T13:05:25.223Z,7.70
2023-04-22T13:08:05.805Z,7.80
2023-04-22T13:10:33.682Z,7.82
2023-04-22T13:13:15.836Z,8.95
2023-04-22T13:15:44.304Z,10.05
2023-04-22T13:18:11.200Z,8.57
2023-04-22T13:20:38.033Z,8.75
2023-04-22T13:23:05.038Z,8.57
2023-04-22T13:25:32.086Z,8.95
2023-04-22T13:27:58.854Z,8.10
2023-04-22T13:30:25.777Z,8.98
2023-04-22T13:32:52.787Z,9.60
2023-04-22T13:35:19.580Z,9.18
2023-04-22T13:37:47.082Z,9.68
2023-04-22T13:40:13.917Z,8.85
2023-04-22T13:42:40.802Z,9.20
2023-04-22T13:45:08.257Z,9.30
2023-04-22T13:47:35.026Z,9.13
2023-04-22T13:50:02.062Z,9.25
2023-04-22T13:52:29.361Z,10.10
2023-04-22T13:54:56.136Z,9.88
2023-04-22T13:57:23.393Z,9.23
2023-04-22T13:59:50.811Z,11.50
2023-04-22T14:02:18.035Z,10.20
2023-04-22T14:04:45.053Z,10.13
2023-04-22T14:07:12.566Z,10.00
2023-04-22T14:09:39.479Z,9.52
2023-04-22T14:12:07.907Z,9.10
2023-04-22T14:14:34.775Z,9.90
2023-04-22T14:17:01.700Z,9.85
2023-04-22T14:19:30.248Z,10.35
2023-04-22T14:21:57.366Z,9.23
2023-04-22T14:24:24.424Z,9.50
2023-04-22T14:26:52.324Z,9.73
2023-04-22T14:29:19.211Z,9.23
2023-04-22T14:31:46.395Z,10.40
2023-04-22T14:34:13.370Z,9.35
2023-04-22T14:36:40.199Z,9.52
2023-04-22T14:39:06.996Z,9.30
2023-04-22T14:41:33.823Z,9.55
2023-04-22T14:44:00.655Z,9.30
2023-04-22T14:46:27.510Z,10.23
2023-04-22T14:48:54.286Z,9.45
2023-04-22T14:51:21.147Z,9.60
2023-04-22T14:53:47.929Z,9.30
2023-04-22T14:56:14.751Z,9.32
2023-04-22T14:58:41.569Z,9.43
2023-04-22T15:01:08.439Z,8.93
2023-04-22T15:03:35.886Z,9.35
2023-04-22T15:06:03.408Z,9.10
2023-04-22T15:08:30.406Z,9.23
2023-04-22T15:10:59.525Z,9.50
2023-04-22T15:13:26.409Z,8.98
2023-04-22T15:15:53.322Z,9.32
2023-04-22T15:18:20.349Z,9.70
2023-04-22T15:20:47.144Z,9.38
2023-04-22T15:23:13.954Z,9.13
2023-04-22T15:25:41.605Z,9.27
2023-04-22T15:28:08.841Z,8.35
2023-04-22T15:30:35.827Z,9.05
2023-04-22T15:33:04.818Z,9.40
2023-04-22T15:35:32.154Z,8.70
2023-04-22T15:37:58.978Z,9.02
2023-04-22T15:40:25.930Z,9.68
2023-04-22T15:42:52.761Z,9.25
2023-04-22T15:45:20.029Z,8.73
2023-04-22T15:47:47.025Z,8.57
2023-04-22T15:50:13.975Z,8.43
2023-04-22T15:52:40.928Z,10.82
2023-04-22T15:55:08.235Z,11.02
2023-04-22T15:57:35.753Z,10.93
2023-04-22T16:00:12.354Z,10.07
2023-04-22T16:02:44.172Z,10.10
2023-04-22T16:07:39.365Z,11.95
2023-04-22T16:10:06.989Z,12.55
2023-04-22T16:12:34.596Z,12.77
2023-04-22T16:15:01.909Z,13.25
2023-04-22T16:17:28.870Z,13.48
2023-04-22T16:19:55.858Z,12.48
2023-04-22T16:22:22.663Z,12.27
2023-04-22T16:24:49.465Z,12.32
2023-04-22T16:27:18.002Z,13.35
2023-04-22T16:29:45.576Z,12.10
2023-04-22T16:32:12.483Z,12.35
2023-04-22T16:34:39.234Z,12.35
2023-04-22T16:37:06.500Z,11.90
2023-04-22T16:39:33.555Z,14.27
2023-04-22T16:42:00.431Z,13.57
2023-04-22T16:44:27.192Z,13.10
2023-04-22T16:46:54.035Z,13.77
2023-04-22T16:49:21.039Z,12.90
2023-04-22T16:51:48.366Z,13.70
2023-04-22T16:54:15.119Z,13.15
2023-04-22T16:56:41.955Z,12.65
2023-04-22T16:59:08.890Z,13.27
2023-04-22T17:01:36.155Z,12.65
2023-04-22T17:04:03.296Z,11.95
2023-04-22T17:06:30.117Z,11.65
2023-04-22T17:08:56.925Z,11.45
2023-04-22T17:11:24.128Z,10.80
2023-04-22T17:13:51.491Z,11.85
2023-04-22T17:16:18.493Z,11.25
2023-04-22T17:18:46.994Z,10.63
2023-04-22T17:21:14.142Z,10.30
2023-04-22T17:23:41.171Z,10.45
2023-04-22T17:26:08.630Z,9.90
2023-04-22T17:28:35.582Z,10.77
2023-04-22T17:31:03.832Z,10.40
2023-04-22T17:33:31.225Z,10.45
2023-04-22T17:35:58.091Z,11.68
2023-04-22T17:38:24.884Z,11.48
2023-04-22T17:40:51.762Z,10.98
2023-04-22T17:43:18.683Z,13.68
2023-04-22T17:45:45.507Z,12.68
2023-04-22T17:48:12.331Z,12.82
2023-04-22T17:50:39.072Z,12.02
2023-04-22T17:53:05.923Z,13.95
2023-04-22T17:55:35.248Z,14.38
2023-04-22T17:58:03.728Z,11.93
2023-04-22T18:00:33.989Z,12.02
2023-04-22T18:03:01.177Z,13.35
2023-04-22T18:05:28.186Z,14.15
2023-04-22T18:07:59.650Z,15.00
2023-04-22T18:10:26.792Z,13.68
2023-04-22T18:12:53.611Z,15.40
2023-04-22T18:15:22.168Z,14.35
2023-04-22T18:17:49.486Z,14.93
2023-04-22T18:20:18.872Z,14.40
2023-04-22T18:22:52.043Z,15.73
2023-04-22T18:25:18.856Z,15.02
2023-04-22T18:27:45.670Z,15.02
2023-04-22T18:30:12.644Z,15.25
2023-04-22T18:32:39.679Z,15.25
2023-04-22T18:35:07.045Z,14.98
2023-04-22T18:37:34.731Z,14.95
2023-04-22T18:40:02.418Z,15.13
2023-04-22T18:42:29.720Z,15.85
2023-04-22T18:44:56.485Z,15.13
2023-04-22T18:47:23.299Z,14.50
2023-04-22T18:49:50.227Z,14.93
2023-04-22T18:52:17.440Z,14.05
2023-04-22T18:54:44.341Z,13.50
2023-04-22T18:57:11.160Z,13.50
2023-04-22T18:59:38.207Z,13.70
2023-04-22T19:02:05.353Z,13.57
2023-04-22T19:04:32.189Z,12.25
2023-04-22T19:06:59.223Z,13.15
2023-04-22T19:09:26.065Z,12.88
2023-04-22T19:11:52.975Z,12.85
2023-04-22T19:14:19.813Z,13.25
2023-04-22T19:16:46.712Z,13.02
2023-04-22T19:19:14.007Z,12.40
2023-04-22T19:21:41.082Z,13.27
2023-04-22T19:24:08.064Z,12.50
2023-04-22T19:26:34.998Z,12.73
2023-04-22T19:29:01.847Z,14.13
2023-04-22T19:31:29.059Z,13.45
2023-04-22T19:33:55.883Z,12.98
2023-04-22T19:36:22.807Z,14.15
2023-04-22T19:38:49.665Z,13.98
2023-04-22T19:41:16.615Z,13.40
2023-04-22T19:43:43.460Z,13.90
2023-04-22T19:46:10.372Z,14.52
2023-04-22T19:48:37.497Z,14.43
2023-04-22T19:51:05.483Z,14.80
2023-04-22T19:53:33.004Z,14.10
2023-04-22T19:56:00.108Z,14.30
2023-04-22T19:58:28.482Z,14.93
2023-04-22T20:05:50.566Z,14.10
2023-04-22T20:08:19.751Z,15.73
2023-04-22T20:10:49.430Z,15.85
2023-04-22T20:13:17.098Z,15.88
2023-04-22T20:15:44.457Z,16.80
2023-04-22T20:18:11.870Z,18.75
2023-04-22T20:20:40.774Z,19.55
2023-04-22T20:23:12.644Z,18.25
2023-04-22T20:25:44.199Z,19.35
2023-04-22T20:28:11.321Z,19.25
2023-04-22T20:30:38.616Z,19.40
2023-04-22T20:33:05.845Z,19.23
2023-04-22T20:35:35.250Z,19.52
2023-04-22T20:38:02.798Z,19.63
2023-04-22T20:40:30.067Z,19.15
2023-04-22T20:42:58.766Z,19.83
2023-04-22T20:45:27.173Z,19.27
2023-04-22T20:47:54.337Z,20.75
2023-04-22T20:50:21.181Z,20.13
2023-04-22T20:52:49.040Z,20.35
2023-04-22T20:55:16.901Z,20.77
2023-04-22T20:57:43.785Z,21.15
2023-04-22T21:00:11.235Z,21.73
2023-04-22T21:02:39.199Z,21.85
2023-04-22T21:05:06.741Z,21.45
2023-04-22T21:07:35.120Z,21.65
2023-04-22T21:10:02.526Z,21.48
2023-04-22T21:12:29.783Z,21.88
2023-04-22T21:14:56.734Z,21.02
2023-04-22T21:17:29.558Z,22.00
2023-04-22T21:19:57.738Z,21.73
2023-04-22T21:22:25.254Z,21.65
2023-04-22T21:24:52.819Z,22.17
2023-04-22T21:27:21.675Z,21.50
2023-04-22T21:29:49.561Z,21.75
2023-04-22T21:32:17.080Z,21.83
2023-04-22T21:34:44.644Z,23.38
2023-04-22T21:37:11.833Z,23.83
2023-04-22T21:39:38.697Z,22.98
2023-04-22T21:42:08.853Z,22.85
2023-04-22T21:44:36.939Z,22.60
2023-04-22T21:47:04.263Z,23.05
2023-04-22T21:49:31.256Z,23.38
2023-04-22T21:51:58.875Z,23.85
2023-04-22T21:54:25.631Z,22.30
2023-04-22T21:56:52.524Z,23.02
2023-04-22T21:59:19.331Z,24.10
2023-04-22T22:01:46.634Z,23.98
2023-04-22T22:04:15.936Z,24.50
2023-04-22T22:06:46.574Z,24.23
2023-04-22T22:09:14.203Z,23.48
2023-04-22T22:11:40.978Z,25.33
2023-04-22T22:14:07.927Z,26.05
2023-04-22T22:16:34.825Z,25.30
2023-04-22T22:19:04.478Z,24.73
2023-04-22T22:21:32.840Z,26.02
2023-04-22T22:23:59.833Z,26.08
2023-04-22T22:26:27.025Z,25.42
2023-04-22T22:28:53.989Z,26.05
2023-04-22T22:31:20.962Z,25.48
2023-04-22T22:33:47.797Z,26.83
2023-04-22T22:36:14.615Z,27.08
2023-04-22T22:38:41.388Z,27.38
2023-04-22T22:41:08.143Z,26.23
2023-04-22T22:43:34.902Z,26.75
2023-04-22T22:46:01.916Z,26.70
2023-04-22T22:48:28.894Z,25.10
2023-04-22T22:50:56.591Z,25.38
2023-04-22T22:53:23.330Z,26.25
2023-04-22T22:55:50.255Z,26.50
2023-04-22T22:58:17.023Z,25.67
2023-04-22T23:00:43.740Z,27.10
2023-04-22T23:03:10.596Z,27.20
2023-04-22T23:05:38.050Z,25.90
2023-04-22T23:08:04.806Z,26.30
2023-04-22T23:10:31.664Z,26.13
2023-04-22T23:12:58.462Z,26.90
2023-04-22T23:15:25.201Z,25.65
2023-04-22T23:17:52.145Z,24.92
2023-04-22T23:20:19.609Z,26.38
2023-04-22T23:22:49.493Z,24.80
2023-04-22T23:25:16.864Z,25.90
2023-04-22T23:27:44.574Z,25.40
2023-04-22T23:30:11.972Z,25.23
2023-04-22T23:32:40.888Z,25.63
2023-04-22T23:35:09.789Z,24.52
2023-04-22T23:37:37.687Z,25.80
2023-04-22T23:40:05.007Z,25.35
2023-04-22T23:42:31.749Z,24.52
2023-04-22T23:44:58.567Z,25.60
2023-04-22T23:47:26.000Z,24.60
2023-04-22T23:49:52.866Z,26.30
2023-04-22T23:52:20.330Z,26.15
2023-04-22T23:54:47.411Z,25.85
2023-04-22T23:57:14.845Z,25.90
2023-04-22T23:59:41.917Z,26.60
